Time;durP1;ratioP1;P1;durP2;ratioP2;P2;SDS_P1;SDS_P2;PMS_P1;PMS_P2;Temp;Humidity;BMP_temperature;BMP_pressure;BME280_temperature;BME280_humidity;BME280_pressure;Samples;Min_cycle;Max_cycle;Signal;HPM_P1;HPM_P2
2024/01/23 00:00:08;;;;;;;1.30;0.87;;;;;;;7.28;100.00;97595.56;5112209;28;20319;-56
2024/01/23 00:02:34;;;;;;;1.87;1.10;;;;;;;7.24;100.00;97607.22;5112402;28;20197;-57
2024/01/23 00:05:01;;;;;;;1.57;1.00;;;;;;;7.32;100.00;97612.84;5113241;28;20211;-58
2024/01/23 00:07:29;;;;;;;2.00;1.13;;;;;;;7.29;100.00;97605.16;5112603;28;20244;-58
2024/01/23 00:09:56;;;;;;;1.17;1.10;;;;;;;7.28;100.00;97606.09;5118303;28;20205;-57
2024/01/23 00:12:22;;;;;;;1.87;1.13;;;;;;;7.31;100.00;97605.91;5129292;28;20224;-57
2024/01/23 00:14:49;;;;;;;1.43;0.63;;;;;;;7.37;100.00;97616.00;5127992;28;20205;-57
2024/01/23 00:17:16;;;;;;;1.37;0.70;;;;;;;7.21;100.00;97610.06;5120320;28;20232;-57
2024/01/23 00:19:42;;;;;;;1.07;0.80;;;;;;;7.17;100.00;97592.78;5116312;28;20291;-59
2024/01/23 00:22:09;;;;;;;1.53;0.67;;;;;;;7.07;100.00;97599.59;5114189;28;20205;-58
2024/01/23 00:24:37;;;;;;;1.30;0.80;;;;;;;7.06;100.00;97588.22;5114914;28;20272;-57
2024/01/23 00:27:06;;;;;;;2.70;1.10;;;;;;;7.00;100.00;97601.78;5113243;28;20200;-57
2024/01/23 00:29:34;;;;;;;0.80;0.70;;;;;;;6.91;100.00;97618.13;5113532;28;20209;-58
2024/01/23 00:32:01;;;;;;;1.23;0.83;;;;;;;6.92;100.00;97610.13;5113756;28;20212;-58
2024/01/23 00:34:27;;;;;;;1.20;1.00;;;;;;;6.87;100.00;97606.94;5113407;28;20203;-57
2024/01/23 00:36:54;;;;;;;2.50;1.10;;;;;;;6.91;100.00;97604.97;5112916;28;20202;-57
2024/01/23 00:39:22;;;;;;;1.33;1.20;;;;;;;6.87;100.00;97600.88;5113269;28;20225;-57
2024/01/23 00:41:51;;;;;;;2.67;1.33;;;;;;;6.86;100.00;97605.28;5113283;28;20309;-57
2024/01/23 00:44:17;;;;;;;2.03;1.20;;;;;;;6.86;100.00;97596.53;5115728;28;20217;-58
2024/01/23 00:46:44;;;;;;;1.37;1.27;;;;;;;6.83;100.00;97600.22;5125222;28;20284;-57
2024/01/23 00:49:12;;;;;;;2.97;1.20;;;;;;;6.78;100.00;97604.06;5125911;28;20239;-58
2024/01/23 00:51:38;;;;;;;3.10;1.30;;;;;;;6.76;100.00;97604.19;5118198;28;20296;-58
2024/01/23 00:54:07;;;;;;;1.70;1.40;;;;;;;6.69;100.00;97602.03;5117036;28;20197;-58
2024/01/23 00:56:35;;;;;;;2.03;1.13;;;;;;;6.60;100.00;97592.91;5116214;28;20197;-58
2024/01/23 00:59:04;;;;;;;2.00;1.30;;;;;;;6.54;100.00;97588.03;5115492;28;20687;-58
2024/01/23 01:01:31;;;;;;;3.80;1.37;;;;;;;6.47;100.00;97581.47;5115307;28;20211;-57
2024/01/23 01:03:59;;;;;;;2.13;1.27;;;;;;;6.43;100.00;97575.56;5116230;28;20201;-58
2024/01/23 01:06:26;;;;;;;1.40;1.23;;;;;;;6.41;100.00;97569.56;5122152;28;20270;-57
2024/01/23 01:08:57;;;;;;;2.37;1.10;;;;;;;6.34;100.00;97560.34;5124245;28;20272;-58
2024/01/23 01:11:24;;;;;;;3.20;1.30;;;;;;;6.31;100.00;97568.44;5125378;28;20223;-58
2024/01/23 01:13:53;;;;;;;2.03;1.10;;;;;;;6.33;100.00;97561.31;5116765;27;20277;-58
2024/01/23 01:16:21;;;;;;;2.23;1.10;;;;;;;6.33;100.00;97574.47;5116368;28;20197;-57
2024/01/23 01:18:51;;;;;;;2.83;1.10;;;;;;;6.40;100.00;97572.28;5115083;28;20315;-57
2024/01/23 01:21:18;;;;;;;1.60;1.00;;;;;;;6.40;100.00;97569.66;5116688;28;20300;-58
2024/01/23 01:23:44;;;;;;;1.50;1.03;;;;;;;6.42;100.00;97557.25;5115524;28;20209;-58
2024/01/23 01:26:11;;;;;;;2.20;1.20;;;;;;;6.44;100.00;97560.66;5117736;28;20211;-58
2024/01/23 01:28:38;;;;;;;2.77;1.00;;;;;;;6.45;100.00;97563.16;5120887;28;20288;-59
2024/01/23 01:31:04;;;;;;;1.30;1.10;;;;;;;6.43;100.00;97554.56;5118980;28;20200;-58
2024/01/23 01:33:38;;;;;;;3.27;1.00;;;;;;;6.46;100.00;97554.34;5117806;28;20197;-58
2024/01/23 01:36:06;;;;;;;1.07;0.83;;;;;;;6.51;100.00;97556.72;5118381;28;20243;-60
2024/01/23 01:38:33;;;;;;;1.33;1.00;;;;;;;6.64;100.00;97562.88;5117847;28;20217;-58
2024/01/23 01:41:03;;;;;;;3.23;1.10;;;;;;;6.70;100.00;97562.47;5119237;28;20284;-59
2024/01/23 01:43:31;;;;;;;1.83;0.87;;;;;;;6.70;100.00;97567.75;5121424;27;20234;-58
2024/01/23 01:46:17;;;;;;;3.27;1.00;;;;;;;6.70;100.00;97580.03;5121111;28;20635;-59
2024/01/23 01:48:47;;;;;;;2.10;0.90;;;;;;;6.64;100.00;97583.91;5114823;28;20561;-59
2024/01/23 01:51:14;;;;;;;3.33;0.80;;;;;;;6.59;100.00;97591.22;5114194;28;20205;-59
2024/01/23 01:53:41;;;;;;;1.53;0.90;;;;;;;6.66;100.00;97607.47;5114219;28;20197;-60
2024/01/23 01:56:08;;;;;;;2.17;1.00;;;;;;;6.59;100.00;97601.72;5114224;28;20205;-59
2024/01/23 01:58:35;;;;;;;2.13;0.83;;;;;;;6.57;100.00;97608.03;5113931;28;20229;-58
2024/01/23 02:01:03;;;;;;;2.43;0.90;;;;;;;6.58;100.00;97609.72;5112297;27;20894;-58
2024/01/23 02:03:31;;;;;;;2.40;0.90;;;;;;;6.53;100.00;97610.00;5116890;28;20677;-58
2024/01/23 02:06:00;;;;;;;3.13;1.20;;;;;;;6.53;100.00;97606.53;5113632;28;20292;-59
2024/01/23 02:08:27;;;;;;;2.23;1.40;;;;;;;6.54;100.00;97603.81;5113443;28;20197;-59
2024/01/23 02:10:54;;;;;;;3.53;1.10;;;;;;;6.63;100.00;97613.75;5113308;28;20205;-59
2024/01/23 02:13:21;;;;;;;6.80;1.23;;;;;;;6.72;100.00;97623.69;5113638;27;20205;-58
2024/01/23 02:15:47;;;;;;;3.53;1.40;;;;;;;6.71;100.00;97624.63;5112395;28;20202;-58
2024/01/23 02:18:14;;;;;;;3.27;1.13;;;;;;;6.72;100.00;97636.00;5113327;28;20252;-58
2024/01/23 02:20:41;;;;;;;3.50;1.60;;;;;;;6.84;100.00;97643.94;5123235;28;20185;-58
2024/01/23 02:23:13;;;;;;;2.57;1.20;;;;;;;6.93;100.00;97658.31;5134266;28;20213;-58
2024/01/23 02:25:41;;;;;;;1.83;1.20;;;;;;;7.00;100.00;97660.47;5132390;28;20236;-59
2024/01/23 02:28:08;;;;;;;2.50;1.30;;;;;;;6.95;100.00;97657.28;5118278;28;20201;-58
2024/01/23 02:30:35;;;;;;;2.73;1.00;;;;;;;6.92;100.00;97656.63;5112728;27;20232;-57
2024/01/23 02:33:03;;;;;;;1.97;1.00;;;;;;;6.96;100.00;97648.47;5113608;28;20197;-58
2024/01/23 02:35:29;;;;;;;2.53;1.00;;;;;;;7.09;100.00;97664.28;5113626;28;20201;-58
2024/01/23 02:37:56;;;;;;;3.23;0.87;;;;;;;7.10;100.00;97666.00;5113409;28;20225;-58
2024/01/23 02:40:23;;;;;;;3.93;1.33;;;;;;;7.03;100.00;97687.50;5113082;28;20201;-58
2024/01/23 02:42:52;;;;;;;3.27;1.03;;;;;;;6.96;100.00;97698.41;5113362;28;20224;-59
2024/01/23 02:45:20;;;;;;;2.47;1.30;;;;;;;7.06;100.00;97676.78;5112439;27;20211;-58
2024/01/23 02:47:47;;;;;;;1.27;0.70;;;;;;;7.06;100.00;97668.91;5113012;28;20545;-57
2024/01/23 02:50:13;;;;;;;2.57;1.00;;;;;;;7.06;100.00;97671.53;5113203;28;20227;-58
2024/01/23 02:52:40;;;;;;;2.03;1.23;;;;;;;7.03;100.00;97679.63;5112914;28;20205;-59
2024/01/23 02:55:07;;;;;;;1.03;0.70;;;;;;;6.97;100.00;97676.44;5113057;28;20205;-58
2024/01/23 02:57:34;;;;;;;2.87;1.43;;;;;;;6.91;100.00;97681.22;5112584;28;20215;-58
2024/01/23 03:00:02;;;;;;;1.57;0.80;;;;;;;6.89;100.00;97686.59;5111666;27;20661;-58
2024/01/23 03:02:29;;;;;;;1.60;0.93;;;;;;;6.81;100.00;97691.47;5112566;28;20537;-58
2024/01/23 03:04:56;;;;;;;1.27;0.90;;;;;;;6.76;100.00;97688.28;5115201;28;20221;-58
2024/01/23 03:07:24;;;;;;;3.10;1.10;;;;;;;6.81;100.00;97691.47;5116254;28;20211;-58
2024/01/23 03:09:52;;;;;;;2.87;1.00;;;;;;;6.73;100.00;97698.16;5114931;28;20205;-59
2024/01/23 03:12:20;;;;;;;2.13;1.10;;;;;;;6.73;100.00;97701.59;5113288;28;20593;-58
2024/01/23 03:14:50;;;;;;;1.20;0.90;;;;;;;6.79;100.00;97685.47;5112872;27;20205;-58
2024/01/23 03:17:19;;;;;;;2.40;0.80;;;;;;;6.76;100.00;97688.28;5111841;28;20211;-58
2024/01/23 03:19:46;;;;;;;1.77;1.20;;;;;;;6.85;100.00;97692.13;5112841;28;20543;-58
2024/01/23 03:22:13;;;;;;;1.60;0.93;;;;;;;6.80;100.00;97696.84;5112296;28;20328;-59
2024/01/23 03:24:40;;;;;;;3.17;1.10;;;;;;;6.71;100.00;97695.59;5112179;28;20201;-58
2024/01/23 03:27:08;;;;;;;2.50;1.10;;;;;;;6.65;100.00;97698.63;5111885;28;20304;-58
2024/01/23 03:29:40;;;;;;;1.27;0.73;;;;;;;6.61;100.00;97688.38;5112421;28;20198;-58
2024/01/23 03:32:07;;;;;;;2.33;0.80;;;;;;;6.52;100.00;97684.50;5110145;27;20545;-58
2024/01/23 03:34:35;;;;;;;3.60;0.90;;;;;;;6.40;100.00;97688.75;5111466;28;20713;-58
2024/01/23 03:37:03;;;;;;;2.30;1.10;;;;;;;6.42;100.00;97693.88;5111488;28;20642;-58
2024/01/23 03:39:33;;;;;;;3.07;1.03;;;;;;;6.40;100.00;97696.63;5111591;28;20221;-58
2024/01/23 03:42:00;;;;;;;1.90;0.80;;;;;;;6.43;100.00;97698.22;5111637;28;20205;-58
2024/01/23 03:44:28;;;;;;;2.10;1.30;;;;;;;6.43;100.00;97685.06;5111220;28;20224;-57
2024/01/23 03:46:55;;;;;;;1.47;0.87;;;;;;;6.46;100.00;97700.66;5110967;28;20200;-57
2024/01/23 03:49:24;;;;;;;1.60;0.60;;;;;;;6.47;100.00;97704.97;5111817;28;21360;-57
2024/01/23 03:51:52;;;;;;;1.43;0.67;;;;;;;6.39;100.00;97699.31;5112019;28;20570;-58
2024/01/23 03:54:19;;;;;;;1.40;0.67;;;;;;;6.28;100.00;97699.13;5111480;28;20205;-58
2024/01/23 03:56:46;;;;;;;2.90;0.87;;;;;;;6.36;100.00;97726.63;5111531;28;20216;-58
2024/01/23 03:59:12;;;;;;;3.63;1.07;;;;;;;6.31;100.00;97727.81;5111445;28;20241;-59
2024/01/23 04:01:39;;;;;;;2.00;1.30;;;;;;;6.32;100.00;97740.03;5111087;28;20209;-58
2024/01/23 04:04:09;;;;;;;4.30;0.80;;;;;;;6.24;100.00;97747.50;5112179;28;20224;-59
2024/01/23 04:06:35;;;;;;;1.37;0.80;;;;;;;6.17;100.00;97743.56;5111113;28;20216;-59
2024/01/23 04:09:04;;;;;;;2.37;0.80;;;;;;;6.27;100.00;97747.34;5111456;28;20213;-58
2024/01/23 04:11:30;;;;;;;3.83;2.00;;;;;;;6.29;100.00;97746.31;5111633;28;20208;-57
2024/01/23 04:13:59;;;;;;;1.20;0.90;;;;;;;6.39;100.00;97744.00;5111361;28;20615;-58
2024/01/23 04:16:25;;;;;;;4.13;1.13;;;;;;;6.38;100.00;97744.91;5110952;28;20205;-58
2024/01/23 04:18:54;;;;;;;1.87;1.03;;;;;;;6.38;100.00;97745.78;5111547;28;20232;-58
2024/01/23 04:21:21;;;;;;;1.67;0.57;;;;;;;6.46;100.00;97745.31;5111356;28;20206;-58
2024/01/23 04:23:48;;;;;;;3.13;0.80;;;;;;;6.56;100.00;97743.84;5110612;28;20201;-58
2024/01/23 04:26:18;;;;;;;1.70;0.80;;;;;;;6.52;100.00;97742.31;5111549;28;20194;-59
2024/01/23 04:28:46;;;;;;;2.23;0.87;;;;;;;6.58;100.00;97747.22;5110964;28;20204;-58
2024/01/23 04:31:15;;;;;;;1.03;0.70;;;;;;;6.71;100.00;97752.59;5128188;28;20226;-58
2024/01/23 04:33:42;;;;;;;2.57;1.10;;;;;;;6.70;100.00;97767.50;5135912;28;20177;-57
2024/01/23 04:36:08;;;;;;;4.87;1.03;;;;;;;6.59;100.00;97769.94;5130175;28;20224;-58
2024/01/23 04:38:37;;;;;;;2.40;0.90;;;;;;;6.79;100.00;97772.22;5114557;28;20224;-58
2024/01/23 04:41:04;;;;;;;2.07;0.73;;;;;;;6.66;100.00;97771.25;5112449;28;20208;-58
2024/01/23 04:43:32;;;;;;;3.30;1.17;;;;;;;6.78;100.00;97754.75;5111399;28;20540;-58
2024/01/23 04:45:59;;;;;;;3.30;0.93;;;;;;;6.86;100.00;97768.28;5111521;28;20539;-57
2024/01/23 04:48:28;;;;;;;1.60;1.23;;;;;;;6.85;100.00;97761.34;5111577;28;20201;-58
2024/01/23 04:50:53;;;;;;;2.93;0.97;;;;;;;6.82;100.00;97761.53;5111605;28;20239;-58
2024/01/23 04:53:27;;;;;;;2.80;1.03;;;;;;;6.88;100.00;97763.78;5111403;28;20201;-59
2024/01/23 04:55:54;;;;;;;3.47;1.00;;;;;;;6.86;100.00;97747.25;5111460;28;20270;-58
2024/01/23 04:58:20;;;;;;;2.47;0.87;;;;;;;6.85;100.00;97753.44;5111367;28;20205;-58
2024/01/23 05:00:49;;;;;;;2.27;0.97;;;;;;;6.82;100.00;97755.41;5109778;28;20263;-58
2024/01/23 05:03:16;;;;;;;2.20;1.30;;;;;;;6.69;100.00;97762.38;5109951;28;20637;-59
2024/01/23 05:05:43;;;;;;;3.30;1.10;;;;;;;6.55;100.00;97760.56;5110938;28;20197;-57
2024/01/23 05:08:09;;;;;;;3.47;0.97;;;;;;;6.63;100.00;97750.41;5111354;28;20615;-58
2024/01/23 05:10:37;;;;;;;4.77;1.20;;;;;;;6.84;100.00;97757.00;5110637;28;20630;-58
2024/01/23 05:13:04;;;;;;;4.07;1.40;;;;;;;6.75;100.00;97770.72;5109627;28;20201;-59
2024/01/23 05:15:31;;;;;;;3.23;1.30;;;;;;;6.80;100.00;97779.16;5110280;28;20529;-58
2024/01/23 05:17:58;;;;;;;3.13;1.50;;;;;;;6.85;100.00;97777.13;5110867;28;20660;-58
2024/01/23 05:20:28;;;;;;;1.97;1.07;;;;;;;6.87;100.00;97780.47;5110617;28;20580;-60
2024/01/23 05:22:56;;;;;;;3.93;1.40;;;;;;;6.76;100.00;97782.94;5116444;28;20231;-59
2024/01/23 05:25:24;;;;;;;6.93;1.90;;;;;;;6.67;100.00;97783.47;5131686;28;20201;-58
2024/01/23 05:27:50;;;;;;;1.33;0.90;;;;;;;6.66;100.00;97779.13;5131637;28;20204;-57
2024/01/23 05:30:17;;;;;;;1.60;0.90;;;;;;;6.71;100.00;97787.59;5113391;28;20631;-58
2024/01/23 05:32:44;;;;;;;4.97;1.57;;;;;;;6.73;100.00;97792.78;5110257;28;20205;-58
2024/01/23 05:35:12;;;;;;;3.40;1.63;;;;;;;6.78;100.00;97796.81;5110883;28;20224;-58
2024/01/23 05:37:39;;;;;;;4.30;1.60;;;;;;;6.84;100.00;97799.06;5114260;28;20201;-58
2024/01/23 05:40:10;;;;;;;5.20;1.70;;;;;;;6.87;100.00;97801.50;5114246;28;20320;-58
2024/01/23 05:42:37;;;;;;;5.27;1.90;;;;;;;6.80;100.00;97797.56;5114287;27;20220;-58
2024/01/23 05:45:04;;;;;;;4.50;1.30;;;;;;;6.82;100.00;97800.97;5116754;27;20300;-58
2024/01/23 05:47:31;;;;;;;3.03;1.77;;;;;;;6.80;100.00;97808.06;5118175;28;20231;-58
2024/01/23 05:49:57;;;;;;;3.87;1.40;;;;;;;6.79;100.00;97821.34;5124131;28;20344;-58
2024/01/23 05:52:26;;;;;;;4.73;1.63;;;;;;;6.85;100.00;97821.81;5116864;28;20243;-58
2024/01/23 05:54:52;;;;;;;6.47;1.73;;;;;;;6.88;100.00;97828.66;5114249;28;20225;-58
2024/01/23 05:57:19;;;;;;;3.73;1.93;;;;;;;6.79;100.00;97832.69;5114135;28;20273;-58
2024/01/23 05:59:46;;;;;;;5.20;1.60;;;;;;;6.84;100.00;97833.25;5113054;28;20253;-58
2024/01/23 06:02:12;;;;;;;5.90;1.63;;;;;;;6.91;100.00;97825.84;5113366;28;20296;-58
2024/01/23 06:04:41;;;;;;;5.57;1.60;;;;;;;6.88;100.00;97833.91;5113596;28;20267;-58
2024/01/23 06:07:07;;;;;;;3.33;1.70;;;;;;;6.86;100.00;97836.66;5113610;28;20270;-59
2024/01/23 06:09:35;;;;;;;4.67;1.40;;;;;;;6.83;100.00;97836.84;5113633;28;20205;-59
2024/01/23 06:12:02;;;;;;;3.70;1.37;;;;;;;6.79;100.00;97853.72;5113324;28;20205;-65
2024/01/23 06:14:29;;;;;;;6.27;2.10;;;;;;;7.10;100.00;97851.91;5113992;27;20294;-64
2024/01/23 06:16:56;;;;;;;6.77;1.90;;;;;;;7.11;100.00;97856.22;5112987;28;20197;-59
2024/01/23 06:19:23;;;;;;;3.97;1.70;;;;;;;7.06;100.00;97867.00;5112866;28;20319;-60
2024/01/23 06:21:50;;;;;;;3.93;1.60;;;;;;;7.09;100.00;97868.59;5112406;27;20342;-58
2024/01/23 06:24:17;;;;;;;5.13;1.70;;;;;;;7.11;100.00;97875.50;5111354;28;20576;-59
2024/01/23 06:26:44;;;;;;;6.17;1.97;;;;;;;7.11;100.00;97879.91;5112545;28;20622;-59
2024/01/23 06:29:11;;;;;;;5.90;2.00;;;;;;;7.06;100.00;97889.84;5112552;28;21477;-59
2024/01/23 06:31:38;;;;;;;4.20;1.77;;;;;;;6.91;100.00;97895.06;5112900;28;20221;-59
2024/01/23 06:34:06;;;;;;;5.87;1.87;;;;;;;6.82;100.00;97892.13;5112915;28;20215;-58
2024/01/23 06:36:33;;;;;;;4.33;1.90;;;;;;;6.80;100.00;97896.66;5113114;28;20204;-59
2024/01/23 06:39:01;;;;;;;6.80;2.23;;;;;;;6.77;100.00;97905.53;5113107;28;20278;-59
2024/01/23 06:41:27;;;;;;;6.67;2.50;;;;;;;6.77;100.00;97909.94;5135183;28;20216;-58
2024/01/23 06:43:55;;;;;;;5.83;2.63;;;;;;;6.72;100.00;97917.28;5133981;28;20245;-59
2024/01/23 06:46:22;;;;;;;4.77;1.63;;;;;;;6.62;100.00;97913.47;5124270;28;20213;-59
2024/01/23 06:48:50;;;;;;;3.87;1.40;;;;;;;6.59;100.00;97919.72;5114042;28;20201;-59
2024/01/23 06:51:16;;;;;;;4.23;1.60;;;;;;;6.59;100.00;97917.09;5113515;28;20289;-58
2024/01/23 06:53:44;;;;;;;7.37;1.63;;;;;;;6.62;100.00;97924.00;5113366;28;20205;-59
2024/01/23 06:56:11;;;;;;;3.47;1.77;;;;;;;6.60;100.00;97926.69;5112939;28;20482;-59
2024/01/23 06:58:38;;;;;;;5.70;1.90;;;;;;;6.67;100.00;97949.06;5113098;28;20196;-59
2024/01/23 07:01:06;;;;;;;4.20;1.77;;;;;;;6.69;100.00;97955.09;5112494;28;20219;-58
2024/01/23 07:03:33;;;;;;;6.00;1.77;;;;;;;6.75;100.00;97965.25;5112683;28;20499;-58
2024/01/23 07:06:00;;;;;;;6.40;2.27;;;;;;;6.68;100.00;97969.19;5111976;28;20207;-59
2024/01/23 07:08:26;;;;;;;5.50;2.00;;;;;;;6.82;100.00;97974.50;5112153;28;20748;-59
2024/01/23 07:10:53;;;;;;;4.50;1.77;;;;;;;6.80;100.00;97984.22;5112030;28;20304;-59
2024/01/23 07:13:20;;;;;;;3.03;1.67;;;;;;;6.79;100.00;97989.59;5112513;28;20197;-58
2024/01/23 07:15:46;;;;;;;5.67;2.00;;;;;;;6.77;100.00;97997.56;5111922;28;20211;-59
2024/01/23 07:18:14;;;;;;;4.73;1.63;;;;;;;6.78;100.00;98007.16;5112594;28;20208;-58
2024/01/23 07:20:41;;;;;;;6.30;2.13;;;;;;;6.91;100.00;98005.50;5111314;28;20265;-58
2024/01/23 07:23:08;;;;;;;5.37;1.60;;;;;;;6.93;100.00;98011.56;5112358;28;20540;-58
2024/01/23 07:25:34;;;;;;;6.20;1.83;;;;;;;6.95;100.00;98017.56;5111980;28;20297;-59
2024/01/23 07:28:01;;;;;;;4.87;1.57;;;;;;;6.87;100.00;98019.75;5111537;28;20205;-59
2024/01/23 07:30:27;;;;;;;5.53;2.10;;;;;;;6.96;100.00;98035.03;5111895;28;20280;-58
2024/01/23 07:32:54;;;;;;;5.63;1.40;;;;;;;7.01;100.00;98040.88;5111901;28;20981;-59
2024/01/23 07:35:23;;;;;;;5.00;1.40;;;;;;;6.98;100.00;98033.16;5111673;28;20207;-59
2024/01/23 07:37:51;;;;;;;4.30;1.80;;;;;;;6.94;100.00;98043.97;5111878;28;20641;-58
2024/01/23 07:40:17;;;;;;;3.53;1.40;;;;;;;6.86;100.00;98035.66;5111323;28;20220;-60
2024/01/23 07:42:44;;;;;;;7.83;2.30;;;;;;;6.85;100.00;98042.69;5111775;28;20205;-59
2024/01/23 07:45:12;;;;;;;6.20;2.00;;;;;;;6.72;100.00;98044.31;5111329;28;20209;-58
2024/01/23 07:47:39;;;;;;;3.40;1.60;;;;;;;6.64;100.00;98056.16;5112163;28;20285;-59
2024/01/23 07:50:07;;;;;;;5.63;2.17;;;;;;;6.64;100.00;98046.50;5111646;28;20193;-59
2024/01/23 07:52:36;;;;;;;5.13;1.87;;;;;;;6.62;100.00;98058.03;5111559;28;20852;-59
2024/01/23 07:55:04;;;;;;;6.83;1.97;;;;;;;6.56;100.00;98059.22;5111451;28;20633;-58
2024/01/23 07:57:30;;;;;;;4.50;1.97;;;;;;;6.57;100.00;98070.56;5111755;28;20215;-59
2024/01/23 07:59:58;;;;;;;5.13;1.77;;;;;;;6.57;100.00;98076.69;5110767;28;20364;-58
2024/01/23 08:02:25;;;;;;;6.20;2.80;;;;;;;6.52;100.00;98083.13;5111290;28;20212;-59
2024/01/23 08:04:53;;;;;;;8.33;2.20;;;;;;;6.58;100.00;98098.56;5111507;28;20262;-59
2024/01/23 08:07:19;;;;;;;6.97;2.50;;;;;;;6.65;100.00;98089.41;5111653;28;20265;-59
2024/01/23 08:09:48;;;;;;;4.00;2.13;;;;;;;6.67;100.00;98088.38;5112166;28;20250;-59
2024/01/23 08:12:15;;;;;;;5.60;1.57;;;;;;;6.69;100.00;98104.09;5111426;28;20193;-58
2024/01/23 08:14:42;;;;;;;7.53;2.13;;;;;;;6.70;100.00;98097.88;5111988;28;20201;-59
2024/01/23 08:17:08;;;;;;;5.23;1.73;;;;;;;6.80;100.00;98097.28;5112407;28;20196;-59
2024/01/23 08:19:35;;;;;;;4.23;2.00;;;;;;;6.92;100.00;98094.00;5112308;28;20225;-59
2024/01/23 08:22:02;;;;;;;4.10;1.40;;;;;;;7.07;100.00;98096.72;5112070;28;20197;-58
2024/01/23 08:24:29;;;;;;;4.40;1.80;;;;;;;7.20;100.00;98089.81;5114012;28;20205;-60
2024/01/23 08:26:57;;;;;;;7.07;2.60;;;;;;;7.25;100.00;98100.94;5111234;28;20212;-59
2024/01/23 08:29:23;;;;;;;5.33;2.30;;;;;;;7.35;100.00;98107.38;5111056;28;20197;-59
2024/01/23 08:31:50;;;;;;;7.43;2.33;;;;;;;7.43;100.00;98113.06;5111043;28;20205;-59
2024/01/23 08:34:18;;;;;;;8.13;2.33;;;;;;;7.50;100.00;98109.97;5111640;28;20203;-59
2024/01/23 08:36:44;;;;;;;4.03;1.70;;;;;;;7.65;100.00;98129.28;5110540;28;20209;-59
2024/01/23 08:39:11;;;;;;;3.87;1.37;;;;;;;7.73;100.00;98132.31;5110981;28;20201;-58
2024/01/23 08:41:40;;;;;;;6.20;2.10;;;;;;;7.75;100.00;98127.84;5110737;28;20221;-58
2024/01/23 08:44:13;;;;;;;9.77;2.30;;;;;;;7.90;100.00;98132.19;5111472;28;20228;-59
2024/01/23 08:46:40;;;;;;;5.73;1.53;;;;;;;8.08;100.00;98139.97;5110735;28;20280;-59
2024/01/23 08:49:09;;;;;;;5.37;1.73;;;;;;;8.21;100.00;98140.91;5110934;28;20215;-59
2024/01/23 08:51:36;;;;;;;6.90;2.00;;;;;;;8.29;100.00;98143.97;5120005;28;20291;-59
2024/01/23 08:54:03;;;;;;;3.67;1.77;;;;;;;8.36;100.00;98158.50;5128505;28;20231;-59
2024/01/23 08:56:31;;;;;;;5.23;1.97;;;;;;;8.40;100.00;98154.69;5120030;28;20224;-59
2024/01/23 08:58:57;;;;;;;4.73;1.67;;;;;;;8.49;100.00;98162.06;5111303;28;20221;-59
2024/01/23 09:01:25;;;;;;;5.13;1.77;;;;;;;8.52;99.77;98164.53;5110233;28;20221;-60
2024/01/23 09:03:53;;;;;;;3.37;1.50;;;;;;;8.60;100.00;98164.91;5110812;28;20308;-58
2024/01/23 09:06:20;;;;;;;3.53;1.33;;;;;;;8.82;100.00;98164.44;5110487;28;20233;-59
2024/01/23 09:08:46;;;;;;;3.63;1.57;;;;;;;8.77;100.00;98167.34;5110909;28;20211;-60
2024/01/23 09:11:13;;;;;;;4.33;1.60;;;;;;;9.03;100.00;98165.72;5112812;28;20280;-59
2024/01/23 09:13:39;;;;;;;3.27;1.43;;;;;;;9.50;98.16;98178.53;5114608;28;20209;-59
2024/01/23 09:16:07;;;;;;;3.27;1.20;;;;;;;9.95;93.94;98178.16;5114299;28;20209;-59
2024/01/23 09:18:35;;;;;;;4.47;1.83;;;;;;;10.42;93.32;98174.16;5114524;28;20704;-59
2024/01/23 09:21:02;;;;;;;2.57;0.97;;;;;;;10.96;89.03;98188.84;5114250;28;20557;-59
2024/01/23 09:23:30;;;;;;;3.87;1.20;;;;;;;10.84;86.42;98196.81;5114835;28;20583;-59
2024/01/23 09:25:57;;;;;;;4.00;1.30;;;;;;;10.38;86.20;98193.84;5114300;28;20205;-58
2024/01/23 09:28:24;;;;;;;2.60;1.20;;;;;;;10.24;88.84;98194.75;5114295;27;20197;-59
2024/01/23 09:30:52;;;;;;;3.90;1.40;;;;;;;9.96;88.47;98197.50;5114608;28;20193;-59
2024/01/23 09:33:19;;;;;;;3.47;1.20;;;;;;;9.59;91.35;98192.94;5114042;28;20645;-59
2024/01/23 09:35:48;;;;;;;1.30;0.90;;;;;;;9.40;92.48;98194.13;5114634;28;20209;-58
2024/01/23 09:38:13;;;;;;;2.73;1.03;;;;;;;9.42;91.63;98199.31;5114536;28;20201;-58
2024/01/23 09:40:42;;;;;;;4.30;1.17;;;;;;;9.86;88.54;98199.91;5114098;28;20699;-59
2024/01/23 09:43:11;;;;;;;2.87;1.10;;;;;;;9.88;88.13;98210.41;5114411;28;20215;-59
2024/01/23 09:45:40;;;;;;;3.20;0.90;;;;;;;9.69;87.44;98210.75;5114715;28;20296;-59
2024/01/23 09:48:07;;;;;;;2.37;1.17;;;;;;;9.45;89.89;98218.47;5114105;28;20206;-59
2024/01/23 09:50:34;;;;;;;3.80;1.00;;;;;;;9.34;87.99;98225.34;5114128;28;20626;-59
2024/01/23 09:53:03;;;;;;;2.30;1.10;;;;;;;9.61;87.19;98222.72;5114321;28;20215;-59
2024/01/23 09:55:30;;;;;;;2.40;1.03;;;;;;;10.02;84.49;98226.19;5114566;28;20211;-58
2024/01/23 09:57:57;;;;;;;3.80;1.20;;;;;;;10.47;81.90;98222.31;5115598;28;20215;-58
2024/01/23 10:00:25;;;;;;;4.80;1.00;;;;;;;10.42;81.33;98225.25;5117062;28;20304;-59
2024/01/23 10:02:52;;;;;;;2.93;1.10;;;;;;;10.17;83.55;98221.69;5114271;27;20213;-59
2024/01/23 10:05:18;;;;;;;1.80;0.83;;;;;;;9.83;84.08;98218.63;5116185;28;20208;-59
2024/01/23 10:07:45;;;;;;;3.37;1.30;;;;;;;9.38;86.23;98230.34;5117167;28;20212;-59
2024/01/23 10:10:15;;;;;;;2.90;1.07;;;;;;;9.97;86.43;98228.28;5113674;28;20614;-59
2024/01/23 10:12:44;;;;;;;1.63;0.70;;;;;;;10.46;82.81;98223.25;5114107;27;20201;-61
2024/01/23 10:15:14;;;;;;;1.90;0.93;;;;;;;10.64;81.48;98223.78;5113576;28;20197;-59
2024/01/23 10:17:40;;;;;;;4.07;1.30;;;;;;;10.78;80.32;98213.09;5113705;28;20201;-61
2024/01/23 10:20:08;;;;;;;2.13;0.93;;;;;;;10.65;79.75;98217.56;5114128;28;20295;-59
2024/01/23 10:22:35;;;;;;;5.55;1.48;;;;;;;10.53;81.59;98218.38;5121371;28;20209;-58
2024/01/23 10:25:11;;;;;;;3.43;1.50;;;;;;;10.41;83.73;98217.44;5129069;28;20334;-59
2024/01/23 10:27:41;;;;;;;4.10;1.43;;;;;;;10.41;83.86;98220.94;5131000;28;20586;-59
2024/01/23 10:30:08;;;;;;;3.33;1.53;;;;;;;10.53;83.05;98213.94;5115918;28;20288;-59
2024/01/23 10:32:37;;;;;;;2.73;1.20;;;;;;;10.70;83.76;98210.97;5112514;28;20197;-59
2024/01/23 10:35:06;;;;;;;3.42;1.52;;;;;;;10.48;87.87;98206.34;5112532;28;20197;-59
2024/01/23 10:37:33;;;;;;;3.70;1.90;;;;;;;10.37;87.58;98202.72;5112892;28;20223;-61
2024/01/23 10:40:00;;;;;;;6.00;1.70;;;;;;;10.14;89.74;98204.25;5112830;28;20201;-60
2024/01/23 10:42:27;;;;;;;4.17;1.77;;;;;;;10.01;88.87;98206.00;5112806;28;20254;-59
2024/01/23 10:45:07;;;;;;;4.10;1.13;;;;;;;9.79;88.92;98222.41;5112886;28;20297;-59
2024/01/23 10:47:34;;;;;;;4.20;1.10;;;;;;;9.47;90.51;98202.50;5113347;28;20271;-59
2024/01/23 10:50:04;;;;;;;2.97;1.23;;;;;;;9.40;91.55;98201.19;5113173;28;20258;-58
2024/01/23 10:52:36;;;;;;;4.93;1.27;;;;;;;9.35;90.87;98211.22;5113579;28;20193;-59
2024/01/23 10:55:05;;;;;;;5.20;1.33;;;;;;;9.42;92.80;98202.78;5113333;28;20634;-59
2024/01/23 10:57:36;;;;;;;4.23;1.23;;;;;;;9.43;91.52;98211.56;5118181;28;21399;-60
2024/01/23 11:00:05;;;;;;;4.43;1.40;;;;;;;9.85;91.07;98200.00;5123697;28;20258;-59
2024/01/23 11:02:38;;;;;;;3.90;1.50;;;;;;;10.30;91.73;98201.44;5130285;28;20624;-58
2024/01/23 11:05:05;;;;;;;4.67;1.40;;;;;;;10.77;88.45;98200.84;5134638;28;20217;-59
2024/01/23 11:07:40;;;;;;;2.70;1.30;;;;;;;11.45;84.89;98191.50;5113549;28;20201;-60
2024/01/23 11:10:13;;;;;;;5.57;1.80;;;;;;;11.71;82.48;98189.66;5114245;28;20283;-60
2024/01/23 11:12:44;;;;;;;3.33;1.57;;;;;;;12.13;81.01;98182.13;5120644;28;20202;-58
2024/01/23 11:15:16;;;;;;;3.60;1.93;;;;;;;12.39;81.43;98192.47;5116821;28;20292;-59
2024/01/23 11:17:43;;;;;;;3.42;1.30;;;;;;;12.71;80.36;98179.38;5113501;28;20258;-60
2024/01/23 11:20:13;;;;;;;7.13;1.90;;;;;;;12.64;78.50;98172.84;5114252;28;20208;-59
2024/01/23 11:22:42;;;;;;;5.25;1.58;;;;;;;12.74;78.45;98167.66;5112853;28;20545;-59
2024/01/23 11:25:12;;;;;;;3.08;1.50;;;;;;;12.72;77.22;98166.94;5113043;28;20236;-60
2024/01/23 11:27:42;;;;;;;3.30;1.40;;;;;;;12.93;77.39;98154.66;5114021;28;20205;-59
2024/01/23 11:30:13;;;;;;;4.68;1.63;;;;;;;12.87;75.76;98148.00;5113452;28;20669;-60
2024/01/23 11:32:39;;;;;;;8.00;1.85;;;;;;;13.26;74.97;98141.38;5112800;28;20201;-61
2024/01/23 11:35:11;;;;;;;4.28;1.90;;;;;;;13.61;72.64;98138.50;5111210;28;20205;-59